createdAt,value
2022-10-17T00:01:53.648Z,12.73
2022-10-17T00:11:56.782Z,12.86
2022-10-17T00:22:01.145Z,12.97
2022-10-17T00:32:04.053Z,13.11
2022-10-17T00:42:08.396Z,13.14
2022-10-17T00:52:15.012Z,13.10
2022-10-17T01:02:22.050Z,12.98
2022-10-17T01:12:29.017Z,12.92
2022-10-17T01:22:42.177Z,12.95
2022-10-17T01:32:50.863Z,13.08
2022-10-17T01:42:59.159Z,13.23
2022-10-17T01:53:09.048Z,13.27
2022-10-17T02:03:17.633Z,13.45
2022-10-17T02:13:35.796Z,13.39
2022-10-17T02:23:48.668Z,13.41
2022-10-17T02:33:59.770Z,13.49
2022-10-17T02:44:04.597Z,13.77
2022-10-17T02:54:11.866Z,13.90
2022-10-17T03:04:16.463Z,13.90
2022-10-17T03:14:21.047Z,13.97
2022-10-17T03:24:24.051Z,14.00
2022-10-17T03:34:28.542Z,14.00
2022-10-17T03:44:31.476Z,13.96
2022-10-17T03:54:36.967Z,14.00
2022-10-17T04:04:40.125Z,14.04
2022-10-17T04:14:44.713Z,14.22
2022-10-17T04:24:47.871Z,14.51
2022-10-17T04:35:12.438Z,14.57
2022-10-17T04:45:19.398Z,14.52
2022-10-17T04:55:26.048Z,14.43
2022-10-17T05:05:29.111Z,14.44
2022-10-17T05:15:34.533Z,14.50
2022-10-17T05:25:38.418Z,14.62
2022-10-17T05:35:43.020Z,14.76
2022-10-17T05:45:46.354Z,14.90
2022-10-17T05:56:01.031Z,15.00
2022-10-17T06:06:06.607Z,15.08
2022-10-17T06:16:12.034Z,15.17
2022-10-17T06:26:15.165Z,15.19
2022-10-17T06:36:19.900Z,15.29
2022-10-17T06:46:29.791Z,15.41
2022-10-17T06:56:45.699Z,15.55
2022-10-17T07:17:04.791Z,15.85
2022-10-17T07:27:09.380Z,15.94
2022-10-17T07:37:14.006Z,15.98
2022-10-17T07:47:23.236Z,15.98
2022-10-17T07:57:29.425Z,15.87
2022-10-17T08:07:32.894Z,15.77
2022-10-17T08:17:39.013Z,15.66
2022-10-17T08:27:42.038Z,15.58
2022-10-17T08:37:46.625Z,15.56
2022-10-17T08:47:54.368Z,15.58
2022-10-17T08:57:58.791Z,15.63
2022-10-17T09:08:09.659Z,15.63
2022-10-17T09:18:21.189Z,15.58
2022-10-17T09:28:31.724Z,15.53
2022-10-17T09:38:41.627Z,15.65
2022-10-17T09:48:52.488Z,15.67
2022-10-17T09:58:59.876Z,15.77
2022-10-17T10:09:05.138Z,15.92
2022-10-17T10:19:22.354Z,15.92
2022-10-17T10:29:31.052Z,15.99
2022-10-17T10:39:44.633Z,16.20
2022-10-17T10:49:48.035Z,16.11
2022-10-17T10:59:59.261Z,16.04
2022-10-17T11:10:11.854Z,16.11
2022-10-17T11:20:25.101Z,16.21
2022-10-17T11:30:41.528Z,16.25
2022-10-17T11:40:50.225Z,16.24
2022-10-17T12:01:32.958Z,16.39
2022-10-17T12:11:50.804Z,16.56
2022-10-17T12:22:23.076Z,16.60
2022-10-17T12:32:30.253Z,16.72
2022-10-17T12:42:53.319Z,16.84
2022-10-17T12:53:07.838Z,17.07
2022-10-17T13:03:16.801Z,17.06
2022-10-17T13:13:23.122Z,16.85
2022-10-17T13:23:32.763Z,16.67
2022-10-17T13:33:39.633Z,16.66
2022-10-17T13:43:44.408Z,16.58
2022-10-17T13:53:47.858Z,16.51
2022-10-17T14:04:07.276Z,16.64
2022-10-17T14:14:20.339Z,16.82
2022-10-17T14:24:31.606Z,16.96
2022-10-17T14:34:36.957Z,16.97
2022-10-17T14:44:41.399Z,16.98
2022-10-17T14:54:46.673Z,16.95
2022-10-17T15:04:51.416Z,16.94
2022-10-17T15:14:55.171Z,16.99
2022-10-17T15:24:59.899Z,16.96
2022-10-17T15:35:03.035Z,16.88
2022-10-17T15:45:10.003Z,16.73
2022-10-17T15:55:12.964Z,16.60
2022-10-17T16:05:19.578Z,16.45
2022-10-17T16:15:25.717Z,16.28
2022-10-17T16:25:31.555Z,16.10
2022-10-17T16:35:36.795Z,15.95
2022-10-17T16:45:42.773Z,15.82
2022-10-17T16:55:45.801Z,15.69
2022-10-17T17:05:52.743Z,15.57
2022-10-17T17:16:03.864Z,15.45
2022-10-17T17:26:10.905Z,15.38
2022-10-17T17:36:17.265Z,15.34
2022-10-17T17:46:23.103Z,15.31
2022-10-17T17:56:28.179Z,15.27
2022-10-17T18:06:32.812Z,15.24
2022-10-17T18:16:37.765Z,15.19
2022-10-17T18:26:42.351Z,15.13
2022-10-17T18:36:45.368Z,15.03
2022-10-17T18:46:50.122Z,14.96
2022-10-17T18:56:55.313Z,14.93
2022-10-17T19:06:59.746Z,14.94
2022-10-17T19:17:04.141Z,14.95
2022-10-17T19:27:09.195Z,15.00
2022-10-17T19:37:12.286Z,14.98
2022-10-17T19:47:16.771Z,14.97
2022-10-17T19:57:19.656Z,14.93
2022-10-17T20:07:24.196Z,14.88
2022-10-17T20:17:27.237Z,14.85
2022-10-17T20:27:31.733Z,14.80
2022-10-17T20:37:39.940Z,14.73
2022-10-17T20:47:53.979Z,14.68
2022-10-17T20:57:57.340Z,14.55
2022-10-17T21:08:02.807Z,14.48
2022-10-17T21:18:05.792Z,14.37
2022-10-17T21:28:10.332Z,14.31
2022-10-17T21:38:13.435Z,14.21
2022-10-17T21:48:17.749Z,14.10
2022-10-17T21:58:21.717Z,13.98
2022-10-17T22:08:26.489Z,13.86
2022-10-17T22:18:29.582Z,13.78
2022-10-17T22:28:34.700Z,13.78
2022-10-17T22:38:37.680Z,13.77
2022-10-17T22:48:42.253Z,13.78
2022-10-17T22:58:45.615Z,13.77
2022-10-17T23:08:50.658Z,13.80
2022-10-17T23:18:53.634Z,13.82
2022-10-17T23:28:58.028Z,13.78
2022-10-17T23:39:01.095Z,13.81
2022-10-17T23:49:05.748Z,13.83
2022-10-17T23:59:09.393Z,13.84
